Maria — SV7156 — position and weather

sailwx.info

Track history (hours):
 
Tides and Currents Weather Stations Pressure Air Temp Water Temp Dewpoint Dewpoint Depression Visibility Wind Speed Wind Dir Waves Ship Positions

Maria

Last reported at 2016-Jul-30 20:34 UTC. Time now 2016-Jul-31 01:42 UTC.
Position N 37°57' E 023°35'.

Length 74 m; draft 4.5 m.

Type: Ship. MMSI: 237493000.

Date/timePositionNaut miles runAvg speedWind from/ knotsBaromVisibWave heightAir tempDewpointWater temp
2016-Jul-30 20:34N 37°57' E 023°35'1 0.6
2016-Jul-30 19:34N 37°57' E 023°36'0 0.0
2016-Jul-30 18:33N 37°57' E 023°36'0 0.0
2016-Jul-30 17:33N 37°57' E 023°36'0 0.0
2016-Jul-30 16:33N 37°57' E 023°36'0 0.0
2016-Jul-30 15:34N 37°57' E 023°36'1 1.1
2016-Jul-30 14:34N 37°58' E 023°35'0 0.0
2016-Jul-30 13:34N 37°58' E 023°35'0 0.0
2016-Jul-30 12:34N 37°58' E 023°35'0 0.0
2016-Jul-30 11:33N 37°58' E 023°35'0 0.0
2016-Jul-30 10:34N 37°58' E 023°35'0 0.0
2016-Jul-30 09:34N 37°58' E 023°35'2 1.9
2016-Jul-30 08:34N 37°59' E 023°33'4 3.9
2016-Jul-30 07:33N 38°02' E 023°36'0 0.0
2016-Jul-30 06:34N 38°02' E 023°36'0 0.0
2016-Jul-30 05:34N 38°02' E 023°36'0 0.0
2016-Jul-30 04:33N 38°02' E 023°36'0 0.0
2016-Jul-30 03:34N 38°02' E 023°36'0 0.0
2016-Jul-30 02:34N 38°02' E 023°36'1 0.9
2016-Jul-30 01:34N 38°02' E 023°35'0 0.0
2016-Jul-30 00:33N 38°02' E 023°35'0 0.0
2016-Jul-29 23:34N 38°02' E 023°35'0 0.0
2016-Jul-29 22:33N 38°02' E 023°35'0 0.0
2016-Jul-29 21:33N 38°02' E 023°35'0 0.0
2016-Jul-29 20:33N 38°02' E 023°35'0 0.0
2016-Jul-29 19:33N 38°02' E 023°35'0 0.0
2016-Jul-29 18:34N 38°02' E 023°35'3 3.3
2016-Jul-29 17:34N 37°59' E 023°33'2 0.1
2016-Jul-28 16:25N 37°58' E 023°35'1 1.1
2016-Jul-28 15:33N 37°57' E 023°36'0 0.0
2016-Jul-28 14:33N 37°57' E 023°36'0 0.0
2016-Jul-28 13:33N 37°57' E 023°36'0 0.0
2016-Jul-28 12:33N 37°57' E 023°36'1 0.2
2016-Jul-28 06:24N 37°58' E 023°35'1 1.3
2016-Jul-28 05:34N 37°57' E 023°36'0 0.0
2016-Jul-28 04:33N 37°57' E 023°36'0 0.0
2016-Jul-28 03:33N 37°57' E 023°36'0 0.0
2016-Jul-28 02:33N 37°57' E 023°36'5 5.5
2016-Jul-28 01:33N 37°53' E 023°32'1 1.3
2016-Jul-28 00:33N 37°52' E 023°32'0 0.0
2016-Jul-27 23:34N 37°52' E 023°32'0 0.0
2016-Jul-27 22:33N 37°52' E 023°32'0 0.0
2016-Jul-27 21:34N 37°52' E 023°32'0 0.0
2016-Jul-27 20:33N 37°52' E 023°32'2 1.9
2016-Jul-27 19:33N 37°53' E 023°33'5 0.4
2016-Jul-27 07:33N 37°58' E 023°35'0 0.0
2016-Jul-27 06:33N 37°58' E 023°35'2 2.1
2016-Jul-27 05:33N 37°59' E 023°33'3 3.1
2016-Jul-27 04:33N 38°02' E 023°35'0 0.0
2016-Jul-27 03:33N 38°02' E 023°35'0 0.0
2016-Jul-27 02:33N 38°02' E 023°35'0 0.0
2016-Jul-27 01:33N 38°02' E 023°35'0 0.0
2016-Jul-27 00:34N 38°02' E 023°35'0 0.0
2016-Jul-26 23:33N 38°02' E 023°35'1 0.7
2016-Jul-26 22:33N 38°02' E 023°36'0 0.0
2016-Jul-26 21:33N 38°02' E 023°36'0 0.0
2016-Jul-26 20:33N 38°02' E 023°36'0 0.0
2016-Jul-26 19:33N 38°02' E 023°36'0 0.0
2016-Jul-26 18:33N 38°02' E 023°36'3 3.1
2016-Jul-26 17:33N 37°59' E 023°33'2 0.1
2016-Jul-25 13:31N 37°58' E 023°35'3 3.1
2016-Jul-25 12:34N 37°56' E 023°38'0 0.0
2016-Jul-25 11:34N 37°56' E 023°38'0 0.0
2016-Jul-25 10:33N 37°56' E 023°38'0 0.0
2016-Jul-25 09:34N 37°56' E 023°38'0 0.0
2016-Jul-25 08:34N 37°56' E 023°38'0 0.0
2016-Jul-25 07:34N 37°56' E 023°38'0 0.0
2016-Jul-25 06:33N 37°56' E 023°38'0 0.0
2016-Jul-25 05:34N 37°56' E 023°38'1 1.2
2016-Jul-25 04:34N 37°57' E 023°37'2 1.8
2016-Jul-25 03:33N 37°58' E 023°35'0 0.0
2016-Jul-23 21:32N 37°58' E 023°35'1 1.1
2016-Jul-23 20:33N 37°57' E 023°36'0 0.0
2016-Jul-23 19:33N 37°57' E 023°36'0 0.0
2016-Jul-23 18:34N 37°57' E 023°36'0 0.0
2016-Jul-23 17:33N 37°57' E 023°36'0 0.0
2016-Jul-23 16:33N 37°57' E 023°36'0 0.0
2016-Jul-23 15:33N 37°57' E 023°36'0 0.0
2016-Jul-23 14:33N 37°57' E 023°36'1 0.5
2016-Jul-23 13:33N 37°57' E 023°35'2 0.1
2016-Jul-22 16:33N 37°58' E 023°33'5 4.6
2016-Jul-22 15:34N 38°02' E 023°36'0 0.1
2016-Jul-22 14:33N 38°02' E 023°36'0 0.0
2016-Jul-22 13:32N 38°02' E 023°36'0 0.0
2016-Jul-22 12:33N 38°02' E 023°36'0 0.0
2016-Jul-22 11:33N 38°02' E 023°36'0 0.0
2016-Jul-22 10:33N 38°02' E 023°36'0 0.5
2016-Jul-22 09:33N 38°02' E 023°35'4 0.1
2016-Jul-21 03:18N 37°58' E 023°35'1 1.5
2016-Jul-21 02:34N 37°57' E 023°36'0 0.0
2016-Jul-21 01:33N 37°57' E 023°36'0 0.0
2016-Jul-21 00:34N 37°57' E 023°36'0 0.0
2016-Jul-20 23:34N 37°57' E 023°36'0 0.0
2016-Jul-20 22:34N 37°57' E 023°36'0 0.0
2016-Jul-20 21:33N 37°57' E 023°36'0 0.0
2016-Jul-20 20:34N 37°57' E 023°36'  
Track history (hours):
 
Tides and Currents Weather Stations Pressure Air Temp Water Temp Dewpoint Dewpoint Depression Visibility Wind Speed Wind Dir Waves Ship Positions

Maria

Last reported at 2016-Jul-30 20:34 UTC. Time now 2016-Jul-31 01:42 UTC.
Position N 37°57' E 023°35'.

Length 74 m; draft 4.5 m.

Type: Ship. MMSI: 237493000.

Date/timePositionNaut miles runAvg speedWind from/ knotsBaromVisibWave heightAir tempDewpointWater temp
2016-Jul-30 20:34N 37°57' E 023°35'1 0.6
2016-Jul-30 19:34N 37°57' E 023°36'0 0.0
2016-Jul-30 18:33N 37°57' E 023°36'0 0.0
2016-Jul-30 17:33N 37°57' E 023°36'0 0.0
2016-Jul-30 16:33N 37°57' E 023°36'0 0.0
2016-Jul-30 15:34N 37°57' E 023°36'1 1.1
2016-Jul-30 14:34N 37°58' E 023°35'0 0.0
2016-Jul-30 13:34N 37°58' E 023°35'0 0.0
2016-Jul-30 12:34N 37°58' E 023°35'0 0.0
2016-Jul-30 11:33N 37°58' E 023°35'0 0.0
2016-Jul-30 10:34N 37°58' E 023°35'0 0.0
2016-Jul-30 09:34N 37°58' E 023°35'2 1.9
2016-Jul-30 08:34N 37°59' E 023°33'4 3.9
2016-Jul-30 07:33N 38°02' E 023°36'0 0.0
2016-Jul-30 06:34N 38°02' E 023°36'0 0.0
2016-Jul-30 05:34N 38°02' E 023°36'0 0.0
2016-Jul-30 04:33N 38°02' E 023°36'0 0.0
2016-Jul-30 03:34N 38°02' E 023°36'0 0.0
2016-Jul-30 02:34N 38°02' E 023°36'1 0.9
2016-Jul-30 01:34N 38°02' E 023°35'0 0.0
2016-Jul-30 00:33N 38°02' E 023°35'0 0.0
2016-Jul-29 23:34N 38°02' E 023°35'0 0.0
2016-Jul-29 22:33N 38°02' E 023°35'0 0.0
2016-Jul-29 21:33N 38°02' E 023°35'0 0.0
2016-Jul-29 20:33N 38°02' E 023°35'0 0.0
2016-Jul-29 19:33N 38°02' E 023°35'0 0.0
2016-Jul-29 18:34N 38°02' E 023°35'3 3.3
2016-Jul-29 17:34N 37°59' E 023°33'2 0.1
2016-Jul-28 16:25N 37°58' E 023°35'1 1.1
2016-Jul-28 15:33N 37°57' E 023°36'0 0.0
2016-Jul-28 14:33N 37°57' E 023°36'0 0.0
2016-Jul-28 13:33N 37°57' E 023°36'0 0.0
2016-Jul-28 12:33N 37°57' E 023°36'1 0.2
2016-Jul-28 06:24N 37°58' E 023°35'1 1.3
2016-Jul-28 05:34N 37°57' E 023°36'0 0.0
2016-Jul-28 04:33N 37°57' E 023°36'0 0.0
2016-Jul-28 03:33N 37°57' E 023°36'0 0.0
2016-Jul-28 02:33N 37°57' E 023°36'5 5.5
2016-Jul-28 01:33N 37°53' E 023°32'1 1.3
2016-Jul-28 00:33N 37°52' E 023°32'0 0.0
2016-Jul-27 23:34N 37°52' E 023°32'0 0.0
2016-Jul-27 22:33N 37°52' E 023°32'0 0.0
2016-Jul-27 21:34N 37°52' E 023°32'0 0.0
2016-Jul-27 20:33N 37°52' E 023°32'2 1.9
2016-Jul-27 19:33N 37°53' E 023°33'5 0.4
2016-Jul-27 07:33N 37°58' E 023°35'0 0.0
2016-Jul-27 06:33N 37°58' E 023°35'2 2.1
2016-Jul-27 05:33N 37°59' E 023°33'3 3.1
2016-Jul-27 04:33N 38°02' E 023°35'0 0.0
2016-Jul-27 03:33N 38°02' E 023°35'0 0.0
2016-Jul-27 02:33N 38°02' E 023°35'0 0.0
2016-Jul-27 01:33N 38°02' E 023°35'0 0.0
2016-Jul-27 00:34N 38°02' E 023°35'0 0.0
2016-Jul-26 23:33N 38°02' E 023°35'1 0.7
2016-Jul-26 22:33N 38°02' E 023°36'0 0.0
2016-Jul-26 21:33N 38°02' E 023°36'0 0.0
2016-Jul-26 20:33N 38°02' E 023°36'0 0.0
2016-Jul-26 19:33N 38°02' E 023°36'0 0.0
2016-Jul-26 18:33N 38°02' E 023°36'3 3.1
2016-Jul-26 17:33N 37°59' E 023°33'2 0.1
2016-Jul-25 13:31N 37°58' E 023°35'3 3.1
2016-Jul-25 12:34N 37°56' E 023°38'0 0.0
2016-Jul-25 11:34N 37°56' E 023°38'0 0.0
2016-Jul-25 10:33N 37°56' E 023°38'0 0.0
2016-Jul-25 09:34N 37°56' E 023°38'0 0.0
2016-Jul-25 08:34N 37°56' E 023°38'0 0.0
2016-Jul-25 07:34N 37°56' E 023°38'0 0.0
2016-Jul-25 06:33N 37°56' E 023°38'0 0.0
2016-Jul-25 05:34N 37°56' E 023°38'1 1.2
2016-Jul-25 04:34N 37°57' E 023°37'2 1.8
2016-Jul-25 03:33N 37°58' E 023°35'0 0.0
2016-Jul-23 21:32N 37°58' E 023°35'1 1.1
2016-Jul-23 20:33N 37°57' E 023°36'0 0.0
2016-Jul-23 19:33N 37°57' E 023°36'0 0.0
2016-Jul-23 18:34N 37°57' E 023°36'0 0.0
2016-Jul-23 17:33N 37°57' E 023°36'0 0.0
2016-Jul-23 16:33N 37°57' E 023°36'0 0.0
2016-Jul-23 15:33N 37°57' E 023°36'0 0.0
2016-Jul-23 14:33N 37°57' E 023°36'1 0.5
2016-Jul-23 13:33N 37°57' E 023°35'2 0.1
2016-Jul-22 16:33N 37°58' E 023°33'5 4.6
2016-Jul-22 15:34N 38°02' E 023°36'0 0.1
2016-Jul-22 14:33N 38°02' E 023°36'0 0.0
2016-Jul-22 13:32N 38°02' E 023°36'0 0.0
2016-Jul-22 12:33N 38°02' E 023°36'0 0.0
2016-Jul-22 11:33N 38°02' E 023°36'0 0.0
2016-Jul-22 10:33N 38°02' E 023°36'0 0.5
2016-Jul-22 09:33N 38°02' E 023°35'4 0.1
2016-Jul-21 03:18N 37°58' E 023°35'1 1.5
2016-Jul-21 02:34N 37°57' E 023°36'0 0.0
2016-Jul-21 01:33N 37°57' E 023°36'0 0.0
2016-Jul-21 00:34N 37°57' E 023°36'0 0.0
2016-Jul-20 23:34N 37°57' E 023°36'0 0.0
2016-Jul-20 22:34N 37°57' E 023°36'0 0.0
2016-Jul-20 21:33N 37°57' E 023°36'0 0.0
2016-Jul-20 20:34N 37°57' E 023°36'  

Dump ship's entire track history